sensor_id;sensor_type;location;lat;lon;timestamp;P1;durP1;ratioP1;P2;durP2;ratioP2
18879;SDS011;9572;52.378;13.404;2022-10-29T00:00:15;12.00;;;4.30;;
18879;SDS011;9572;52.378;13.404;2022-10-29T00:02:42;7.30;;;3.95;;
18879;SDS011;9572;52.378;13.404;2022-10-29T00:05:09;10.77;;;4.13;;
18879;SDS011;9572;52.378;13.404;2022-10-29T00:07:35;9.95;;;4.30;;
18879;SDS011;9572;52.378;13.404;2022-10-29T00:10:02;7.10;;;4.07;;
18879;SDS011;9572;52.378;13.404;2022-10-29T00:12:30;11.60;;;4.65;;
18879;SDS011;9572;52.378;13.404;2022-10-29T00:14:58;11.15;;;4.57;;
18879;SDS011;9572;52.378;13.404;2022-10-29T00:17:25;14.77;;;4.75;;
18879;SDS011;9572;52.378;13.404;2022-10-29T00:19:52;14.00;;;4.75;;
18879;SDS011;9572;52.378;13.404;2022-10-29T00:22:19;17.00;;;4.57;;
18879;SDS011;9572;52.378;13.404;2022-10-29T00:24:46;18.40;;;4.88;;
18879;SDS011;9572;52.378;13.404;2022-10-29T00:27:12;12.98;;;4.75;;
18879;SDS011;9572;52.378;13.404;2022-10-29T00:29:39;10.80;;;4.43;;
18879;SDS011;9572;52.378;13.404;2022-10-29T00:32:07;11.85;;;4.63;;
18879;SDS011;9572;52.378;13.404;2022-10-29T00:34:35;10.40;;;4.75;;
18879;SDS011;9572;52.378;13.404;2022-10-29T00:37:01;16.05;;;4.97;;
18879;SDS011;9572;52.378;13.404;2022-10-29T00:39:28;14.07;;;4.35;;
18879;SDS011;9572;52.378;13.404;2022-10-29T00:41:57;17.00;;;4.72;;
18879;SDS011;9572;52.378;13.404;2022-10-29T00:44:28;18.45;;;4.30;;
18879;SDS011;9572;52.378;13.404;2022-10-29T00:46:57;11.35;;;4.28;;
18879;SDS011;9572;52.378;13.404;2022-10-29T00:49:37;12.75;;;4.15;;
18879;SDS011;9572;52.378;13.404;2022-10-29T00:52:07;9.90;;;4.55;;
18879;SDS011;9572;52.378;13.404;2022-10-29T00:54:35;14.38;;;4.60;;
18879;SDS011;9572;52.378;13.404;2022-10-29T00:57:06;18.15;;;4.32;;
18879;SDS011;9572;52.378;13.404;2022-10-29T00:59:36;15.85;;;4.90;;
18879;SDS011;9572;52.378;13.404;2022-10-29T01:02:03;11.93;;;5.20;;
18879;SDS011;9572;52.378;13.404;2022-10-29T01:04:29;13.57;;;4.55;;
18879;SDS011;9572;52.378;13.404;2022-10-29T01:06:58;10.52;;;4.15;;
18879;SDS011;9572;52.378;13.404;2022-10-29T01:09:25;11.38;;;4.47;;
18879;SDS011;9572;52.378;13.404;2022-10-29T01:11:56;12.88;;;4.70;;
18879;SDS011;9572;52.378;13.404;2022-10-29T01:14:34;12.15;;;4.60;;
18879;SDS011;9572;52.378;13.404;2022-10-29T01:17:10;16.80;;;5.25;;
18879;SDS011;9572;52.378;13.404;2022-10-29T01:19:54;18.38;;;5.13;;
18879;SDS011;9572;52.378;13.404;2022-10-29T01:22:49;12.05;;;4.82;;
18879;SDS011;9572;52.378;13.404;2022-10-29T01:25:41;11.82;;;4.20;;
18879;SDS011;9572;52.378;13.404;2022-10-29T01:28:32;12.40;;;4.25;;
18879;SDS011;9572;52.378;13.404;2022-10-29T01:31:11;11.88;;;4.30;;
18879;SDS011;9572;52.378;13.404;2022-10-29T01:33:44;8.15;;;4.10;;
18879;SDS011;9572;52.378;13.404;2022-10-29T01:36:21;6.90;;;3.88;;
18879;SDS011;9572;52.378;13.404;2022-10-29T01:38:55;14.00;;;4.32;;
18879;SDS011;9572;52.378;13.404;2022-10-29T01:41:31;12.93;;;4.43;;
18879;SDS011;9572;52.378;13.404;2022-10-29T01:44:07;12.13;;;4.40;;
18879;SDS011;9572;52.378;13.404;2022-10-29T01:46:43;17.27;;;4.85;;
18879;SDS011;9572;52.378;13.404;2022-10-29T01:49:14;11.45;;;4.40;;
18879;SDS011;9572;52.378;13.404;2022-10-29T01:51:46;10.52;;;4.07;;
18879;SDS011;9572;52.378;13.404;2022-10-29T01:54:15;9.68;;;4.25;;
18879;SDS011;9572;52.378;13.404;2022-10-29T01:56:42;16.60;;;4.50;;
18879;SDS011;9572;52.378;13.404;2022-10-29T01:59:09;10.38;;;3.92;;
18879;SDS011;9572;52.378;13.404;2022-10-29T02:01:42;12.00;;;4.47;;
18879;SDS011;9572;52.378;13.404;2022-10-29T02:04:26;14.50;;;4.45;;
18879;SDS011;9572;52.378;13.404;2022-10-29T02:07:10;12.00;;;4.55;;
18879;SDS011;9572;52.378;13.404;2022-10-29T02:09:45;13.00;;;5.18;;
18879;SDS011;9572;52.378;13.404;2022-10-29T02:12:21;8.88;;;4.15;;
18879;SDS011;9572;52.378;13.404;2022-10-29T02:14:51;11.73;;;3.72;;
18879;SDS011;9572;52.378;13.404;2022-10-29T02:17:22;11.02;;;4.55;;
18879;SDS011;9572;52.378;13.404;2022-10-29T02:19:49;10.38;;;4.15;;
18879;SDS011;9572;52.378;13.404;2022-10-29T02:22:16;9.43;;;4.13;;
18879;SDS011;9572;52.378;13.404;2022-10-29T02:24:43;8.65;;;3.90;;
18879;SDS011;9572;52.378;13.404;2022-10-29T02:27:10;8.45;;;4.40;;
18879;SDS011;9572;52.378;13.404;2022-10-29T02:29:37;9.90;;;4.15;;
18879;SDS011;9572;52.378;13.404;2022-10-29T02:32:04;12.43;;;4.40;;
18879;SDS011;9572;52.378;13.404;2022-10-29T02:34:33;8.35;;;4.15;;
18879;SDS011;9572;52.378;13.404;2022-10-29T02:36:59;13.85;;;4.95;;
18879;SDS011;9572;52.378;13.404;2022-10-29T02:39:26;9.70;;;4.72;;
18879;SDS011;9572;52.378;13.404;2022-10-29T02:41:54;9.98;;;4.13;;
18879;SDS011;9572;52.378;13.404;2022-10-29T02:44:21;11.70;;;4.60;;
18879;SDS011;9572;52.378;13.404;2022-10-29T02:46:48;11.75;;;4.70;;
18879;SDS011;9572;52.378;13.404;2022-10-29T02:49:15;10.75;;;4.88;;
18879;SDS011;9572;52.378;13.404;2022-10-29T02:51:43;8.40;;;4.63;;
18879;SDS011;9572;52.378;13.404;2022-10-29T02:54:10;16.17;;;4.95;;
18879;SDS011;9572;52.378;13.404;2022-10-29T02:56:37;12.32;;;4.60;;
18879;SDS011;9572;52.378;13.404;2022-10-29T02:59:05;6.97;;;3.92;;
18879;SDS011;9572;52.378;13.404;2022-10-29T03:01:31;9.65;;;4.70;;
18879;SDS011;9572;52.378;13.404;2022-10-29T03:03:58;16.45;;;5.53;;
18879;SDS011;9572;52.378;13.404;2022-10-29T03:06:25;14.38;;;4.75;;
18879;SDS011;9572;52.378;13.404;2022-10-29T03:08:54;17.05;;;5.82;;
18879;SDS011;9572;52.378;13.404;2022-10-29T03:11:21;14.48;;;5.78;;
18879;SDS011;9572;52.378;13.404;2022-10-29T03:13:47;12.13;;;5.40;;
18879;SDS011;9572;52.378;13.404;2022-10-29T03:16:14;12.77;;;4.95;;
18879;SDS011;9572;52.378;13.404;2022-10-29T03:18:41;9.40;;;4.90;;
18879;SDS011;9572;52.378;13.404;2022-10-29T03:21:08;12.77;;;5.28;;
18879;SDS011;9572;52.378;13.404;2022-10-29T03:23:35;8.52;;;4.25;;
18879;SDS011;9572;52.378;13.404;2022-10-29T03:26:03;9.57;;;4.60;;
18879;SDS011;9572;52.378;13.404;2022-10-29T03:28:30;8.60;;;4.70;;
18879;SDS011;9572;52.378;13.404;2022-10-29T03:30:57;14.13;;;5.55;;
18879;SDS011;9572;52.378;13.404;2022-10-29T03:33:24;13.20;;;5.32;;
18879;SDS011;9572;52.378;13.404;2022-10-29T03:35:54;11.50;;;5.30;;
18879;SDS011;9572;52.378;13.404;2022-10-29T03:38:22;10.10;;;4.47;;
18879;SDS011;9572;52.378;13.404;2022-10-29T03:40:49;7.57;;;4.18;;
18879;SDS011;9572;52.378;13.404;2022-10-29T03:43:18;9.18;;;4.82;;
18879;SDS011;9572;52.378;13.404;2022-10-29T03:45:48;10.65;;;4.55;;
18879;SDS011;9572;52.378;13.404;2022-10-29T03:48:16;13.20;;;5.00;;
18879;SDS011;9572;52.378;13.404;2022-10-29T03:50:43;9.65;;;4.85;;
18879;SDS011;9572;52.378;13.404;2022-10-29T03:53:10;13.55;;;5.10;;
18879;SDS011;9572;52.378;13.404;2022-10-29T03:55:36;10.63;;;5.00;;
18879;SDS011;9572;52.378;13.404;2022-10-29T03:58:03;9.25;;;4.72;;
18879;SDS011;9572;52.378;13.404;2022-10-29T04:00:32;12.73;;;4.65;;
18879;SDS011;9572;52.378;13.404;2022-10-29T04:02:58;11.25;;;5.10;;
18879;SDS011;9572;52.378;13.404;2022-10-29T04:05:25;9.02;;;4.68;;
18879;SDS011;9572;52.378;13.404;2022-10-29T04:07:52;12.85;;;4.72;;
18879;SDS011;9572;52.378;13.404;2022-10-29T04:10:19;15.93;;;5.70;;
18879;SDS011;9572;52.378;13.404;2022-10-29T04:12:46;13.05;;;5.28;;
18879;SDS011;9572;52.378;13.404;2022-10-29T04:15:13;14.88;;;5.05;;
18879;SDS011;9572;52.378;13.404;2022-10-29T04:17:41;9.70;;;4.90;;
18879;SDS011;9572;52.378;13.404;2022-10-29T04:20:08;7.28;;;4.93;;
18879;SDS011;9572;52.378;13.404;2022-10-29T04:22:36;14.70;;;6.43;;
18879;SDS011;9572;52.378;13.404;2022-10-29T04:25:03;13.50;;;6.45;;
18879;SDS011;9572;52.378;13.404;2022-10-29T04:27:30;18.48;;;6.53;;
18879;SDS011;9572;52.378;13.404;2022-10-29T04:29:57;12.63;;;5.47;;
18879;SDS011;9572;52.378;13.404;2022-10-29T04:32:24;21.48;;;6.32;;
18879;SDS011;9572;52.378;13.404;2022-10-29T04:34:52;12.65;;;5.18;;
18879;SDS011;9572;52.378;13.404;2022-10-29T04:37:19;13.63;;;5.00;;
18879;SDS011;9572;52.378;13.404;2022-10-29T04:39:46;8.60;;;4.85;;
18879;SDS011;9572;52.378;13.404;2022-10-29T04:42:13;11.73;;;5.00;;
18879;SDS011;9572;52.378;13.404;2022-10-29T04:44:39;11.63;;;5.40;;
18879;SDS011;9572;52.378;13.404;2022-10-29T04:47:06;14.07;;;5.63;;
18879;SDS011;9572;52.378;13.404;2022-10-29T04:49:33;10.15;;;5.07;;
18879;SDS011;9572;52.378;13.404;2022-10-29T04:52:02;14.85;;;5.97;;
18879;SDS011;9572;52.378;13.404;2022-10-29T04:54:29;17.15;;;6.28;;
18879;SDS011;9572;52.378;13.404;2022-10-29T04:56:56;10.75;;;5.00;;
18879;SDS011;9572;52.378;13.404;2022-10-29T04:59:22;14.55;;;5.57;;
18879;SDS011;9572;52.378;13.404;2022-10-29T05:01:49;13.45;;;4.88;;
18879;SDS011;9572;52.378;13.404;2022-10-29T05:04:16;8.90;;;5.10;;
18879;SDS011;9572;52.378;13.404;2022-10-29T05:06:43;9.32;;;5.18;;
18879;SDS011;9572;52.378;13.404;2022-10-29T05:09:11;12.77;;;5.10;;
18879;SDS011;9572;52.378;13.404;2022-10-29T05:11:38;9.38;;;4.40;;
18879;SDS011;9572;52.378;13.404;2022-10-29T05:14:05;8.77;;;5.10;;
18879;SDS011;9572;52.378;13.404;2022-10-29T05:16:32;17.02;;;7.72;;
18879;SDS011;9572;52.378;13.404;2022-10-29T05:18:59;13.40;;;7.68;;
18879;SDS011;9572;52.378;13.404;2022-10-29T05:21:26;15.38;;;8.15;;
18879;SDS011;9572;52.378;13.404;2022-10-29T05:23:53;13.68;;;7.32;;
18879;SDS011;9572;52.378;13.404;2022-10-29T05:26:21;13.98;;;6.35;;
18879;SDS011;9572;52.378;13.404;2022-10-29T05:28:48;10.35;;;6.22;;
18879;SDS011;9572;52.378;13.404;2022-10-29T05:31:16;12.95;;;6.60;;
18879;SDS011;9572;52.378;13.404;2022-10-29T05:33:43;14.77;;;5.78;;
18879;SDS011;9572;52.378;13.404;2022-10-29T05:36:10;15.18;;;5.85;;
18879;SDS011;9572;52.378;13.404;2022-10-29T05:38:36;11.25;;;6.18;;
18879;SDS011;9572;52.378;13.404;2022-10-29T05:41:03;8.93;;;5.05;;
18879;SDS011;9572;52.378;13.404;2022-10-29T05:43:32;9.98;;;5.38;;
18879;SDS011;9572;52.378;13.404;2022-10-29T05:46:00;10.25;;;6.53;;
18879;SDS011;9572;52.378;13.404;2022-10-29T05:48:27;13.63;;;6.82;;
18879;SDS011;9572;52.378;13.404;2022-10-29T05:50:55;10.23;;;5.68;;
18879;SDS011;9572;52.378;13.404;2022-10-29T05:53:23;10.88;;;5.57;;
18879;SDS011;9572;52.378;13.404;2022-10-29T05:55:49;9.63;;;5.40;;
18879;SDS011;9572;52.378;13.404;2022-10-29T05:58:16;11.23;;;5.55;;
18879;SDS011;9572;52.378;13.404;2022-10-29T06:00:45;16.02;;;6.28;;
18879;SDS011;9572;52.378;13.404;2022-10-29T06:03:12;15.07;;;6.45;;
18879;SDS011;9572;52.378;13.404;2022-10-29T06:05:40;12.60;;;6.15;;
18879;SDS011;9572;52.378;13.404;2022-10-29T06:08:07;13.05;;;5.65;;
18879;SDS011;9572;52.378;13.404;2022-10-29T06:10:34;12.40;;;5.20;;
18879;SDS011;9572;52.378;13.404;2022-10-29T06:13:01;13.07;;;5.03;;
18879;SDS011;9572;52.378;13.404;2022-10-29T06:15:34;11.90;;;5.50;;
18879;SDS011;9572;52.378;13.404;2022-10-29T06:18:02;10.23;;;5.85;;
18879;SDS011;9572;52.378;13.404;2022-10-29T06:20:29;17.23;;;6.40;;
18879;SDS011;9572;52.378;13.404;2022-10-29T06:22:56;15.48;;;6.35;;
18879;SDS011;9572;52.378;13.404;2022-10-29T06:25:24;11.38;;;5.95;;
18879;SDS011;9572;52.378;13.404;2022-10-29T06:27:58;10.98;;;5.63;;
18879;SDS011;9572;52.378;13.404;2022-10-29T06:30:26;17.73;;;6.45;;
18879;SDS011;9572;52.378;13.404;2022-10-29T06:32:53;13.07;;;5.68;;
18879;SDS011;9572;52.378;13.404;2022-10-29T06:35:22;11.00;;;6.05;;
18879;SDS011;9572;52.378;13.404;2022-10-29T06:37:49;16.13;;;6.55;;
18879;SDS011;9572;52.378;13.404;2022-10-29T06:40:16;15.00;;;6.07;;
18879;SDS011;9572;52.378;13.404;2022-10-29T06:42:43;17.65;;;6.70;;
18879;SDS011;9572;52.378;13.404;2022-10-29T06:45:10;19.17;;;7.18;;
18879;SDS011;9572;52.378;13.404;2022-10-29T06:47:38;14.80;;;6.53;;
18879;SDS011;9572;52.378;13.404;2022-10-29T06:50:05;17.92;;;6.75;;
18879;SDS011;9572;52.378;13.404;2022-10-29T06:52:34;14.05;;;6.25;;
18879;SDS011;9572;52.378;13.404;2022-10-29T06:55:01;20.90;;;7.05;;
18879;SDS011;9572;52.378;13.404;2022-10-29T06:57:29;18.02;;;6.50;;
18879;SDS011;9572;52.378;13.404;2022-10-29T06:59:57;17.35;;;6.47;;
18879;SDS011;9572;52.378;13.404;2022-10-29T07:02:23;17.90;;;6.20;;
18879;SDS011;9572;52.378;13.404;2022-10-29T07:04:50;12.65;;;6.22;;
18879;SDS011;9572;52.378;13.404;2022-10-29T07:07:17;16.77;;;6.28;;
18879;SDS011;9572;52.378;13.404;2022-10-29T07:09:45;19.35;;;6.47;;
18879;SDS011;9572;52.378;13.404;2022-10-29T07:12:12;15.13;;;5.85;;
18879;SDS011;9572;52.378;13.404;2022-10-29T07:14:39;11.30;;;6.07;;
18879;SDS011;9572;52.378;13.404;2022-10-29T07:17:06;16.35;;;6.20;;
18879;SDS011;9572;52.378;13.404;2022-10-29T07:19:33;15.70;;;6.28;;
18879;SDS011;9572;52.378;13.404;2022-10-29T07:22:00;17.83;;;7.30;;
18879;SDS011;9572;52.378;13.404;2022-10-29T07:24:26;15.50;;;6.10;;
18879;SDS011;9572;52.378;13.404;2022-10-29T07:26:55;11.23;;;6.00;;
18879;SDS011;9572;52.378;13.404;2022-10-29T07:29:21;21.25;;;6.63;;
18879;SDS011;9572;52.378;13.404;2022-10-29T07:31:48;16.98;;;7.03;;
18879;SDS011;9572;52.378;13.404;2022-10-29T07:34:15;16.80;;;6.25;;
18879;SDS011;9572;52.378;13.404;2022-10-29T07:36:42;17.27;;;6.38;;
18879;SDS011;9572;52.378;13.404;2022-10-29T07:39:09;17.08;;;6.30;;
18879;SDS011;9572;52.378;13.404;2022-10-29T07:41:36;9.18;;;5.88;;
18879;SDS011;9572;52.378;13.404;2022-10-29T07:44:04;11.63;;;5.53;;
18879;SDS011;9572;52.378;13.404;2022-10-29T07:46:31;12.70;;;5.57;;
18879;SDS011;9572;52.378;13.404;2022-10-29T07:48:58;12.95;;;5.47;;
18879;SDS011;9572;52.378;13.404;2022-10-29T07:51:25;13.75;;;5.50;;
18879;SDS011;9572;52.378;13.404;2022-10-29T07:53:52;12.63;;;5.60;;
18879;SDS011;9572;52.378;13.404;2022-10-29T07:56:19;13.32;;;5.97;;
18879;SDS011;9572;52.378;13.404;2022-10-29T07:58:46;17.65;;;6.15;;
18879;SDS011;9572;52.378;13.404;2022-10-29T08:01:14;15.20;;;6.10;;
18879;SDS011;9572;52.378;13.404;2022-10-29T08:03:41;20.38;;;5.93;;
18879;SDS011;9572;52.378;13.404;2022-10-29T08:06:08;17.45;;;5.75;;
18879;SDS011;9572;52.378;13.404;2022-10-29T08:08:35;17.60;;;6.20;;
18879;SDS011;9572;52.378;13.404;2022-10-29T08:11:03;13.93;;;5.93;;
18879;SDS011;9572;52.378;13.404;2022-10-29T08:13:31;13.05;;;5.75;;
18879;SDS011;9572;52.378;13.404;2022-10-29T08:15:58;16.23;;;6.50;;
18879;SDS011;9572;52.378;13.404;2022-10-29T08:18:26;13.93;;;5.95;;
18879;SDS011;9572;52.378;13.404;2022-10-29T08:20:53;15.50;;;5.32;;
18879;SDS011;9572;52.378;13.404;2022-10-29T08:23:19;16.63;;;6.32;;
18879;SDS011;9572;52.378;13.404;2022-10-29T08:25:47;12.30;;;5.32;;
18879;SDS011;9572;52.378;13.404;2022-10-29T08:28:14;14.65;;;5.60;;
18879;SDS011;9572;52.378;13.404;2022-10-29T08:30:41;17.30;;;5.28;;
18879;SDS011;9572;52.378;13.404;2022-10-29T08:33:09;11.52;;;4.82;;
18879;SDS011;9572;52.378;13.404;2022-10-29T08:35:37;12.68;;;5.22;;
18879;SDS011;9572;52.378;13.404;2022-10-29T08:38:04;12.43;;;4.78;;
18879;SDS011;9572;52.378;13.404;2022-10-29T08:40:37;12.63;;;5.03;;
18879;SDS011;9572;52.378;13.404;2022-10-29T08:43:19;18.45;;;5.75;;
18879;SDS011;9572;52.378;13.404;2022-10-29T08:45:59;10.93;;;4.70;;
18879;SDS011;9572;52.378;13.404;2022-10-29T08:48:34;14.93;;;5.35;;
18879;SDS011;9572;52.378;13.404;2022-10-29T08:51:07;16.77;;;4.95;;
18879;SDS011;9572;52.378;13.404;2022-10-29T08:53:40;14.63;;;5.07;;
18879;SDS011;9572;52.378;13.404;2022-10-29T08:56:11;20.50;;;5.45;;
18879;SDS011;9572;52.378;13.404;2022-10-29T08:58:42;18.13;;;5.10;;
18879;SDS011;9572;52.378;13.404;2022-10-29T09:01:15;20.92;;;5.32;;
18879;SDS011;9572;52.378;13.404;2022-10-29T09:03:46;13.43;;;4.47;;
18879;SDS011;9572;52.378;13.404;2022-10-29T09:06:15;10.57;;;4.47;;
18879;SDS011;9572;52.378;13.404;2022-10-29T09:08:53;10.50;;;4.20;;
18879;SDS011;9572;52.378;13.404;2022-10-29T09:11:32;17.50;;;4.82;;
18879;SDS011;9572;52.378;13.404;2022-10-29T09:14:11;12.82;;;4.20;;
18879;SDS011;9572;52.378;13.404;2022-10-29T09:16:53;18.45;;;4.47;;
18879;SDS011;9572;52.378;13.404;2022-10-29T09:19:27;11.27;;;4.15;;
18879;SDS011;9572;52.378;13.404;2022-10-29T09:22:08;10.20;;;3.85;;
18879;SDS011;9572;52.378;13.404;2022-10-29T09:24:44;9.48;;;4.25;;
18879;SDS011;9572;52.378;13.404;2022-10-29T09:27:18;29.00;;;11.48;;
18879;SDS011;9572;52.378;13.404;2022-10-29T09:29:56;11.57;;;5.13;;
18879;SDS011;9572;52.378;13.404;2022-10-29T09:32:32;15.85;;;4.47;;
18879;SDS011;9572;52.378;13.404;2022-10-29T09:35:04;15.60;;;4.50;;
18879;SDS011;9572;52.378;13.404;2022-10-29T09:37:41;10.23;;;4.40;;
18879;SDS011;9572;52.378;13.404;2022-10-29T09:40:14;10.38;;;4.35;;
18879;SDS011;9572;52.378;13.404;2022-10-29T09:42:48;18.98;;;4.65;;
18879;SDS011;9572;52.378;13.404;2022-10-29T09:45:16;16.95;;;4.68;;
18879;SDS011;9572;52.378;13.404;2022-10-29T09:47:50;16.63;;;5.00;;
18879;SDS011;9572;52.378;13.404;2022-10-29T09:50:25;11.80;;;4.40;;
18879;SDS011;9572;52.378;13.404;2022-10-29T09:53:01;12.23;;;4.53;;
18879;SDS011;9572;52.378;13.404;2022-10-29T09:55:30;7.38;;;3.53;;
18879;SDS011;9572;52.378;13.404;2022-10-29T09:58:03;10.43;;;4.15;;
18879;SDS011;9572;52.378;13.404;2022-10-29T10:00:31;11.48;;;3.80;;
18879;SDS011;9572;52.378;13.404;2022-10-29T10:03:00;8.30;;;3.80;;
18879;SDS011;9572;52.378;13.404;2022-10-29T10:05:31;11.57;;;4.25;;
18879;SDS011;9572;52.378;13.404;2022-10-29T10:08:05;9.95;;;4.00;;
18879;SDS011;9572;52.378;13.404;2022-10-29T10:10:34;13.00;;;4.30;;
18879;SDS011;9572;52.378;13.404;2022-10-29T10:13:04;15.45;;;4.50;;
18879;SDS011;9572;52.378;13.404;2022-10-29T10:15:37;11.00;;;4.55;;
18879;SDS011;9572;52.378;13.404;2022-10-29T10:18:04;10.52;;;4.40;;
18879;SDS011;9572;52.378;13.404;2022-10-29T10:20:33;16.48;;;4.90;;
18879;SDS011;9572;52.378;13.404;2022-10-29T10:23:13;13.00;;;4.40;;
18879;SDS011;9572;52.378;13.404;2022-10-29T10:25:47;9.98;;;4.30;;
18879;SDS011;9572;52.378;13.404;2022-10-29T10:28:16;15.68;;;4.88;;
18879;SDS011;9572;52.378;13.404;2022-10-29T10:30:45;13.32;;;4.22;;
18879;SDS011;9572;52.378;13.404;2022-10-29T10:33:31;13.95;;;4.70;;
18879;SDS011;9572;52.378;13.404;2022-10-29T10:35:59;11.65;;;4.60;;
18879;SDS011;9572;52.378;13.404;2022-10-29T10:38:36;18.20;;;4.57;;
18879;SDS011;9572;52.378;13.404;2022-10-29T10:41:05;16.02;;;4.93;;
18879;SDS011;9572;52.378;13.404;2022-10-29T10:43:33;16.90;;;5.03;;
18879;SDS011;9572;52.378;13.404;2022-10-29T10:46:03;9.00;;;4.55;;
18879;SDS011;9572;52.378;13.404;2022-10-29T10:48:36;14.13;;;5.63;;
18879;SDS011;9572;52.378;13.404;2022-10-29T10:51:22;17.77;;;5.25;;
18879;SDS011;9572;52.378;13.404;2022-10-29T10:53:52;15.07;;;4.78;;
18879;SDS011;9572;52.378;13.404;2022-10-29T10:56:20;13.10;;;4.00;;
18879;SDS011;9572;52.378;13.404;2022-10-29T10:58:49;13.38;;;4.47;;
18879;SDS011;9572;52.378;13.404;2022-10-29T11:01:23;17.08;;;5.32;;
18879;SDS011;9572;52.378;13.404;2022-10-29T11:03:57;15.70;;;4.97;;
18879;SDS011;9572;52.378;13.404;2022-10-29T11:06:30;17.40;;;5.80;;
18879;SDS011;9572;52.378;13.404;2022-10-29T11:09:06;14.00;;;5.32;;
18879;SDS011;9572;52.378;13.404;2022-10-29T11:11:38;12.88;;;4.45;;
18879;SDS011;9572;52.378;13.404;2022-10-29T11:14:10;14.52;;;5.72;;
18879;SDS011;9572;52.378;13.404;2022-10-29T11:16:44;14.50;;;5.00;;
18879;SDS011;9572;52.378;13.404;2022-10-29T11:19:17;20.42;;;5.85;;
18879;SDS011;9572;52.378;13.404;2022-10-29T11:21:53;21.02;;;5.63;;
18879;SDS011;9572;52.378;13.404;2022-10-29T11:24:29;13.52;;;5.32;;
18879;SDS011;9572;52.378;13.404;2022-10-29T11:27:05;14.60;;;4.93;;
18879;SDS011;9572;52.378;13.404;2022-10-29T11:29:42;13.70;;;4.55;;
18879;SDS011;9572;52.378;13.404;2022-10-29T11:32:13;11.88;;;4.78;;
18879;SDS011;9572;52.378;13.404;2022-10-29T11:34:46;13.90;;;5.05;;
18879;SDS011;9572;52.378;13.404;2022-10-29T11:37:20;16.85;;;5.70;;
18879;SDS011;9572;52.378;13.404;2022-10-29T11:39:55;16.05;;;5.40;;
18879;SDS011;9572;52.378;13.404;2022-10-29T11:42:27;11.73;;;4.97;;
18879;SDS011;9572;52.378;13.404;2022-10-29T11:44:55;12.95;;;5.38;;
18879;SDS011;9572;52.378;13.404;2022-10-29T11:47:36;19.83;;;6.60;;
18879;SDS011;9572;52.378;13.404;2022-10-29T11:50:17;16.38;;;6.40;;
18879;SDS011;9572;52.378;13.404;2022-10-29T11:52:52;17.00;;;5.28;;
18879;SDS011;9572;52.378;13.404;2022-10-29T11:55:27;13.93;;;6.30;;
18879;SDS011;9572;52.378;13.404;2022-10-29T11:58:01;15.18;;;5.63;;
18879;SDS011;9572;52.378;13.404;2022-10-29T12:00:42;12.75;;;5.63;;
18879;SDS011;9572;52.378;13.404;2022-10-29T12:03:27;13.57;;;6.00;;
18879;SDS011;9572;52.378;13.404;2022-10-29T12:06:07;18.73;;;6.90;;
18879;SDS011;9572;52.378;13.404;2022-10-29T12:08:47;16.42;;;5.65;;
18879;SDS011;9572;52.378;13.404;2022-10-29T12:11:25;17.48;;;5.65;;
18879;SDS011;9572;52.378;13.404;2022-10-29T12:14:00;17.55;;;5.75;;
18879;SDS011;9572;52.378;13.404;2022-10-29T12:16:38;21.27;;;6.18;;
18879;SDS011;9572;52.378;13.404;2022-10-29T12:19:17;19.65;;;6.03;;
18879;SDS011;9572;52.378;13.404;2022-10-29T12:21:54;20.30;;;5.90;;
18879;SDS011;9572;52.378;13.404;2022-10-29T12:24:32;23.75;;;6.63;;
18879;SDS011;9572;52.378;13.404;2022-10-29T12:27:16;16.10;;;5.60;;
18879;SDS011;9572;52.378;13.404;2022-10-29T12:29:49;16.98;;;5.60;;
18879;SDS011;9572;52.378;13.404;2022-10-29T12:32:24;23.67;;;6.53;;
18879;SDS011;9572;52.378;13.404;2022-10-29T12:34:57;13.63;;;5.80;;
18879;SDS011;9572;52.378;13.404;2022-10-29T12:37:28;18.42;;;5.40;;
18879;SDS011;9572;52.378;13.404;2022-10-29T12:40:04;15.52;;;5.55;;
18879;SDS011;9572;52.378;13.404;2022-10-29T12:42:41;20.30;;;5.78;;
18879;SDS011;9572;52.378;13.404;2022-10-29T12:45:13;14.00;;;5.50;;
18879;SDS011;9572;52.378;13.404;2022-10-29T12:47:51;20.08;;;5.80;;
18879;SDS011;9572;52.378;13.404;2022-10-29T12:50:26;12.73;;;4.93;;
18879;SDS011;9572;52.378;13.404;2022-10-29T12:53:06;15.43;;;5.28;;
18879;SDS011;9572;52.378;13.404;2022-10-29T12:55:42;18.25;;;5.18;;
18879;SDS011;9572;52.378;13.404;2022-10-29T13:04:25;16.58;;;6.13;;
18879;SDS011;9572;52.378;13.404;2022-10-29T13:07:03;18.58;;;5.60;;
18879;SDS011;9572;52.378;13.404;2022-10-29T13:09:46;15.63;;;5.80;;
18879;SDS011;9572;52.378;13.404;2022-10-29T13:12:13;25.50;;;5.90;;
18879;SDS011;9572;52.378;13.404;2022-10-29T13:15:19;14.52;;;5.65;;
18879;SDS011;9572;52.378;13.404;2022-10-29T13:17:46;17.42;;;5.75;;
18879;SDS011;9572;52.378;13.404;2022-10-29T13:20:18;18.40;;;5.60;;
18879;SDS011;9572;52.378;13.404;2022-10-29T13:22:50;13.30;;;4.95;;
18879;SDS011;9572;52.378;13.404;2022-10-29T13:25:28;15.82;;;5.38;;
18879;SDS011;9572;52.378;13.404;2022-10-29T13:34:08;16.10;;;5.68;;
18879;SDS011;9572;52.378;13.404;2022-10-29T13:36:35;18.40;;;5.78;;
18879;SDS011;9572;52.378;13.404;2022-10-29T13:39:14;13.13;;;4.95;;
18879;SDS011;9572;52.378;13.404;2022-10-29T13:41:45;22.30;;;6.10;;
18879;SDS011;9572;52.378;13.404;2022-10-29T13:44:16;13.65;;;5.30;;
18879;SDS011;9572;52.378;13.404;2022-10-29T13:46:48;14.52;;;5.20;;
18879;SDS011;9572;52.378;13.404;2022-10-29T13:49:19;14.52;;;5.63;;
18879;SDS011;9572;52.378;13.404;2022-10-29T13:51:50;10.07;;;4.32;;
18879;SDS011;9572;52.378;13.404;2022-10-29T13:54:39;24.05;;;6.07;;
18879;SDS011;9572;52.378;13.404;2022-10-29T13:57:16;14.82;;;4.68;;
18879;SDS011;9572;52.378;13.404;2022-10-29T13:59:48;12.43;;;5.40;;
18879;SDS011;9572;52.378;13.404;2022-10-29T14:02:27;10.10;;;4.80;;
18879;SDS011;9572;52.378;13.404;2022-10-29T14:05:02;17.85;;;5.75;;
18879;SDS011;9572;52.378;13.404;2022-10-29T14:07:40;17.98;;;5.70;;
18879;SDS011;9572;52.378;13.404;2022-10-29T14:10:14;16.27;;;5.40;;
18879;SDS011;9572;52.378;13.404;2022-10-29T14:12:45;17.92;;;6.10;;
18879;SDS011;9572;52.378;13.404;2022-10-29T14:15:14;14.65;;;4.95;;
18879;SDS011;9572;52.378;13.404;2022-10-29T14:17:43;11.07;;;4.93;;
18879;SDS011;9572;52.378;13.404;2022-10-29T14:20:18;10.85;;;4.45;;
18879;SDS011;9572;52.378;13.404;2022-10-29T14:22:46;10.32;;;4.88;;
18879;SDS011;9572;52.378;13.404;2022-10-29T14:25:24;15.73;;;5.53;;
18879;SDS011;9572;52.378;13.404;2022-10-29T14:30:58;12.20;;;5.57;;
18879;SDS011;9572;52.378;13.404;2022-10-29T14:33:29;13.60;;;5.78;;
18879;SDS011;9572;52.378;13.404;2022-10-29T14:35:58;12.27;;;4.75;;
18879;SDS011;9572;52.378;13.404;2022-10-29T14:38:31;11.23;;;5.18;;
18879;SDS011;9572;52.378;13.404;2022-10-29T14:41:03;12.75;;;4.65;;
18879;SDS011;9572;52.378;13.404;2022-10-29T14:43:30;11.23;;;5.25;;
18879;SDS011;9572;52.378;13.404;2022-10-29T14:46:07;11.15;;;5.15;;
18879;SDS011;9572;52.378;13.404;2022-10-29T14:48:47;14.60;;;5.35;;
18879;SDS011;9572;52.378;13.404;2022-10-29T14:51:19;8.73;;;4.97;;
18879;SDS011;9572;52.378;13.404;2022-10-29T14:53:51;12.25;;;5.00;;
18879;SDS011;9572;52.378;13.404;2022-10-29T14:56:19;9.20;;;4.93;;
18879;SDS011;9572;52.378;13.404;2022-10-29T14:58:47;10.60;;;4.53;;
18879;SDS011;9572;52.378;13.404;2022-10-29T15:01:14;11.30;;;4.38;;
18879;SDS011;9572;52.378;13.404;2022-10-29T15:03:44;8.90;;;4.07;;
18879;SDS011;9572;52.378;13.404;2022-10-29T15:06:16;6.78;;;4.18;;
18879;SDS011;9572;52.378;13.404;2022-10-29T15:08:44;7.35;;;4.05;;
18879;SDS011;9572;52.378;13.404;2022-10-29T15:11:35;7.35;;;4.07;;